Time;durP1;ratioP1;P1;durP2;ratioP2;P2;SDS_P1;SDS_P2;PMS_P1;PMS_P2;Temp;Humidity;BMP_temperature;BMP_pressure;BME280_temperature;BME280_humidity;BME280_pressure;Samples;Min_cycle;Max_cycle;Signal;HPM_P1;HPM_P2
2022/08/02 00:01:32;;;;;;;2.95;2.30;;;19.00;99.90;;;19.48;100.00;101262.66;5167246;28;20043;-85
2022/08/02 00:04:05;;;;;;;3.88;2.30;;;19.00;99.90;;;19.47;100.00;101256.50;5167764;28;20065;-85
2022/08/02 00:06:37;;;;;;;2.58;2.22;;;19.10;99.90;;;19.46;100.00;101267.94;5168631;28;20042;-85
2022/08/02 00:09:09;;;;;;;2.75;2.47;;;19.00;99.90;;;19.46;100.00;101267.06;5167821;28;20043;-85
2022/08/02 00:11:43;;;;;;;3.35;2.55;;;19.10;99.90;;;19.46;100.00;101267.94;5167018;28;20449;-85
2022/08/02 00:14:15;;;;;;;3.95;2.88;;;19.00;99.90;;;19.45;100.00;101271.47;5167322;28;20427;-85
2022/08/02 00:16:47;;;;;;;2.85;2.20;;;19.10;99.90;;;19.42;100.00;101262.63;5167088;28;20057;-85
2022/08/02 00:19:19;;;;;;;2.65;2.22;;;19.00;99.90;;;19.37;100.00;101251.16;5166774;28;20082;-86
2022/08/02 00:21:51;;;;;;;3.58;2.20;;;19.00;99.90;;;19.32;100.00;101259.06;5166661;28;20051;-85
2022/08/02 00:24:23;;;;;;;3.13;2.20;;;18.90;99.90;;;19.28;100.00;101261.66;5166451;28;20141;-85
2022/08/02 00:26:57;;;;;;;3.08;2.20;;;18.90;99.90;;;19.24;100.00;101250.19;5167320;28;20051;-86
2022/08/02 00:29:29;;;;;;;3.13;2.20;;;18.80;99.90;;;19.23;100.00;101256.34;5166880;28;20124;-85
2022/08/02 00:32:02;;;;;;;3.83;2.30;;;18.80;99.90;;;19.21;100.00;101260.72;5171588;28;20066;-85
2022/08/02 00:34:34;;;;;;;2.92;2.03;;;18.80;99.90;;;19.19;100.00;101263.38;5172589;28;20046;-85
2022/08/02 00:37:06;;;;;;;2.58;2.10;;;18.80;99.90;;;19.17;100.00;101269.50;5170935;28;20053;-84
2022/08/02 00:39:38;;;;;;;2.50;2.20;;;18.80;99.90;;;19.14;100.00;101274.78;5169777;28;20141;-83
2022/08/02 00:42:14;;;;;;;3.03;2.30;;;18.70;99.90;;;19.09;100.00;101266.81;5172952;28;20046;-85
2022/08/02 00:44:46;;;;;;;2.22;1.95;;;18.70;99.90;;;19.05;100.00;101267.69;5172446;28;20042;-85
2022/08/02 00:47:18;;;;;;;3.50;2.40;;;18.70;99.90;;;18.99;100.00;101265.00;5170479;28;20042;-85
2022/08/02 00:49:50;;;;;;;2.90;2.60;;;18.60;99.90;;;18.97;100.00;101267.63;5170338;28;20401;-85
2022/08/02 00:52:23;;;;;;;3.67;2.45;;;18.60;99.90;;;18.94;100.00;101266.69;5169250;28;20062;-85
2022/08/02 00:54:55;;;;;;;3.45;2.58;;;18.50;99.90;;;18.91;100.00;101267.56;5171315;28;20459;-86
2022/08/02 00:57:29;;;;;;;3.47;2.30;;;18.50;99.90;;;18.90;100.00;101260.50;5169505;28;20493;-85
2022/08/02 01:00:01;;;;;;;3.33;2.40;;;18.50;99.90;;;18.94;100.00;101256.13;5169472;28;20132;-85
2022/08/02 01:02:33;;;;;;;3.25;2.20;;;18.50;99.90;;;18.94;100.00;101259.66;5170300;28;20050;-85
2022/08/02 01:05:06;;;;;;;4.22;2.47;;;18.50;99.90;;;18.93;100.00;101260.53;5171061;28;20088;-85
2022/08/02 01:07:39;;;;;;;3.53;2.45;;;18.50;99.90;;;18.92;100.00;101257.88;5169531;28;20046;-85
2022/08/02 01:10:11;;;;;;;3.40;2.38;;;18.50;99.90;;;18.89;100.00;101247.28;5170304;28;20054;-85
2022/08/02 01:12:46;;;;;;;3.67;2.40;;;18.50;99.90;;;18.85;100.00;101246.38;5170343;28;20125;-85
2022/08/02 01:15:19;;;;;;;3.75;2.50;;;18.50;99.90;;;18.84;100.00;101254.28;5169253;28;20105;-84
2022/08/02 01:18:01;;;;;;;3.92;2.75;;;18.50;99.90;;;18.84;100.00;101256.91;5168668;28;20057;-85
2022/08/02 01:21:17;;;;;;;3.70;2.47;;;18.50;99.90;;;18.81;100.00;101251.63;5168695;28;20054;-86
2022/08/02 01:24:04;;;;;;;3.05;2.40;;;18.40;99.90;;;18.78;100.00;101254.22;5112943;29;20051;-88
2022/08/02 01:26:43;;;;;;;3.00;2.35;;;18.40;99.90;;;18.76;100.00;101250.69;5113361;29;20047;-83
2022/08/02 01:29:23;;;;;;;3.35;2.22;;;18.40;99.90;;;18.74;100.00;101257.72;5155648;28;20101;-85
2022/08/02 01:32:02;;;;;;;3.67;2.33;;;18.40;99.90;;;18.71;100.00;101253.28;5172120;28;20073;-85
2022/08/02 01:34:40;;;;;;;4.32;2.60;;;18.30;99.90;;;18.70;100.00;101248.88;5171186;28;20046;-84
2022/08/02 01:37:18;;;;;;;2.85;2.20;;;18.30;99.90;;;18.68;100.00;101254.16;5171108;28;20046;-85
2022/08/02 01:39:55;;;;;;;3.97;2.33;;;18.30;99.90;;;18.66;100.00;101248.00;5170169;28;20057;-85
2022/08/02 01:42:29;;;;;;;2.63;2.22;;;18.30;99.90;;;18.63;100.00;101250.56;5169447;28;20497;-85
2022/08/02 01:45:05;;;;;;;3.20;2.33;;;18.30;99.90;;;18.60;100.00;101253.19;5170601;28;20508;-84
2022/08/02 01:47:41;;;;;;;3.45;2.20;;;18.20;99.90;;;18.59;100.00;101253.16;5170742;28;20054;-85
2022/08/02 01:50:17;;;;;;;2.80;2.30;;;18.20;99.90;;;18.59;100.00;101251.41;5169604;28;20141;-85
2022/08/02 01:52:53;;;;;;;3.13;2.63;;;18.20;99.90;;;18.60;100.00;101250.53;5170734;28;20424;-85
2022/08/02 01:55:30;;;;;;;2.97;2.20;;;18.20;99.90;;;18.59;100.00;101248.78;5171133;28;20050;-84
2022/08/02 01:58:06;;;;;;;3.00;2.13;;;18.20;99.90;;;18.56;100.00;101251.38;5170590;28;20051;-84
2022/08/02 02:00:41;;;;;;;3.17;2.10;;;18.20;99.90;;;18.54;100.00;101247.84;5170216;28;20056;-85
2022/08/02 02:03:20;;;;;;;3.95;2.10;;;18.20;99.90;;;18.53;100.00;101264.56;5171295;28;20061;-86
2022/08/02 02:05:56;;;;;;;3.13;2.38;;;18.20;99.90;;;18.50;100.00;101248.66;5170619;28;20529;-85
2022/08/02 02:08:34;;;;;;;3.53;2.35;;;18.10;99.90;;;18.46;100.00;101241.59;5170526;28;20074;-84
2022/08/02 02:11:07;;;;;;;2.80;2.15;;;18.10;99.90;;;18.45;100.00;101242.44;5171174;28;20050;-85
2022/08/02 02:13:41;;;;;;;4.40;2.40;;;18.10;99.90;;;18.44;100.00;101240.69;5170638;28;20081;-85
2022/08/02 02:16:16;;;;;;;3.88;2.38;;;18.10;99.90;;;18.42;100.00;101245.97;5170865;28;20053;-85
2022/08/02 02:18:50;;;;;;;3.42;2.40;;;18.10;99.90;;;18.43;100.00;101242.44;5170700;28;20057;-85
2022/08/02 02:21:22;;;;;;;3.28;2.40;;;18.10;99.90;;;18.41;100.00;101235.41;5172066;28;20077;-85
2022/08/02 02:23:54;;;;;;;4.07;2.97;;;18.00;99.90;;;18.40;100.00;101236.28;5169874;28;20460;-86
2022/08/02 02:26:29;;;;;;;5.22;2.90;;;18.00;99.90;;;18.40;100.00;101231.00;5171072;28;20054;-85
2022/08/02 02:29:03;;;;;;;4.68;2.58;;;18.00;99.90;;;18.42;100.00;101223.97;5172426;28;20045;-84
2022/08/02 02:31:39;;;;;;;3.65;2.53;;;18.00;99.90;;;18.41;100.00;101222.19;5172209;28;20531;-85
2022/08/02 02:34:17;;;;;;;4.80;3.22;;;18.00;99.90;;;18.41;100.00;101223.09;5170135;28;20475;-85
2022/08/02 02:36:51;;;;;;;5.38;2.78;;;18.00;99.90;;;18.44;100.00;101222.22;5170591;28;20050;-84
2022/08/02 02:39:26;;;;;;;4.93;2.45;;;18.10;99.90;;;18.41;100.00;101219.56;5170324;28;20058;-85
2022/08/02 02:42:03;;;;;;;4.65;2.65;;;18.00;99.90;;;18.37;100.00;101216.00;5170818;28;20054;-85
2022/08/02 02:44:36;;;;;;;3.60;2.60;;;18.00;99.90;;;18.35;100.00;101211.56;5170410;28;20061;-84
2022/08/02 02:47:11;;;;;;;5.32;2.60;;;18.00;99.90;;;18.34;100.00;101220.38;5171534;28;20042;-84
2022/08/02 02:49:45;;;;;;;3.55;2.45;;;18.00;99.90;;;18.30;100.00;101219.44;5169678;28;20046;-86
2022/08/02 02:52:19;;;;;;;3.15;2.30;;;18.00;99.90;;;18.28;100.00;101217.66;5170641;28;20050;-85
2022/08/02 02:54:52;;;;;;;3.88;2.85;;;17.90;99.90;;;18.24;100.00;101213.22;5171059;28;20424;-86
2022/08/02 02:57:24;;;;;;;2.67;2.22;;;17.90;99.90;;;18.20;100.00;101222.00;5171802;28;20056;-85
2022/08/02 02:59:57;;;;;;;3.35;2.80;;;17.80;99.90;;;18.15;100.00;101216.66;5171745;28;20416;-87
2022/08/02 03:02:31;;;;;;;3.30;2.28;;;17.80;99.90;;;18.11;100.00;101218.38;5170066;28;20054;-85
2022/08/02 03:05:05;;;;;;;3.97;2.25;;;17.80;99.90;;;18.07;100.00;101221.84;5170392;28;20117;-85
2022/08/02 03:07:37;;;;;;;3.78;2.60;;;17.70;99.90;;;18.02;100.00;101218.28;5170358;28;20274;-85
2022/08/02 03:10:11;;;;;;;3.33;2.17;;;17.70;99.90;;;17.98;100.00;101219.09;5170932;28;20050;-84
2022/08/02 03:12:43;;;;;;;2.70;2.17;;;17.60;99.90;;;17.96;100.00;101220.84;5171053;28;20070;-86
2022/08/02 03:15:17;;;;;;;4.07;2.33;;;17.60;99.90;;;17.93;100.00;101222.56;5171600;28;20050;-85
2022/08/02 03:17:50;;;;;;;;;;;17.60;99.90;;;17.88;100.00;101215.50;5172584;28;20042;-84
2022/08/02 03:20:23;;;;;;;3.45;2.20;;;17.50;99.90;;;17.85;100.00;101214.56;5171077;28;19921;-86
2022/08/02 03:22:55;;;;;;;3.65;2.70;;;17.50;99.90;;;17.82;100.00;101209.25;5171214;28;20149;-85
2022/08/02 03:25:27;;;;;;;2.90;2.22;;;17.50;99.90;;;17.79;100.00;101209.19;5171699;28;20050;-85
2022/08/02 03:27:59;;;;;;;3.50;2.30;;;17.40;99.90;;;17.75;100.00;101207.41;5171756;28;20054;-86
2022/08/02 03:30:31;;;;;;;3.75;2.80;;;17.40;99.90;;;17.74;100.00;101210.94;5172182;28;20497;-86
2022/08/02 03:33:05;;;;;;;3.03;2.22;;;17.40;99.90;;;17.74;100.00;101206.53;5176124;28;20058;-86
2022/08/02 03:35:38;;;;;;;3.58;2.60;;;17.40;99.90;;;17.76;100.00;101204.78;5181614;28;20056;-85
2022/08/02 03:38:12;;;;;;;3.60;2.58;;;17.40;99.90;;;17.80;100.00;101210.97;5178700;28;20050;-85
2022/08/02 03:40:46;;;;;;;3.60;2.50;;;17.50;99.90;;;17.79;100.00;101210.09;5173860;28;20057;-86
2022/08/02 03:43:19;;;;;;;4.38;2.80;;;17.50;99.90;;;17.78;100.00;101208.31;5178538;28;20053;-86
2022/08/02 03:45:52;;;;;;;3.70;2.58;;;17.40;99.90;;;17.78;100.00;101205.69;5178993;28;20043;-85
2022/08/02 03:48:26;;;;;;;4.13;2.90;;;17.50;99.90;;;17.80;100.00;101205.69;5180381;28;20049;-84
2022/08/02 03:50:59;;;;;;;4.93;2.75;;;17.50;99.90;;;17.80;100.00;101210.97;5188800;28;20116;-86
2022/08/02 03:53:32;;;;;;;3.78;3.08;;;17.50;99.90;;;17.76;100.00;101215.34;5171761;28;20043;-86
2022/08/02 03:56:05;;;;;;;4.60;3.10;;;17.40;99.90;;;17.74;100.00;101208.28;5171651;28;20123;-85
2022/08/02 03:58:37;;;;;;;3.92;3.08;;;17.40;99.90;;;17.71;100.00;101206.47;5171532;28;20050;-86
2022/08/02 04:01:09;;;;;;;3.47;2.65;;;17.40;99.90;;;17.69;100.00;101208.19;5171428;28;20069;-85
2022/08/02 04:03:43;;;;;;;4.22;2.85;;;17.40;99.90;;;17.66;100.00;101200.22;5173489;28;20051;-84
2022/08/02 04:06:15;;;;;;;3.30;2.70;;;17.40;99.90;;;17.61;100.00;101197.56;5175059;28;20077;-86
2022/08/02 04:08:47;;;;;;;4.00;2.60;;;17.30;99.90;;;17.59;100.00;101201.03;5176872;28;20069;-86
2022/08/02 04:11:32;;;;;;;3.95;2.60;;;17.30;99.90;;;17.54;100.00;101203.63;5178484;28;20049;-85
2022/08/02 04:14:09;;;;;;;4.70;2.78;;;17.20;99.90;;;17.51;100.00;101203.56;5179763;28;20531;-86
2022/08/02 04:16:45;;;;;;;3.30;2.47;;;17.20;99.90;;;17.51;100.00;101202.69;5185064;28;20034;-84
2022/08/02 04:19:26;;;;;;;4.22;2.75;;;17.20;99.90;;;17.49;100.00;101207.94;5188469;28;20065;-87
2022/08/02 04:22:04;;;;;;;5.43;3.38;;;17.20;99.90;;;17.51;100.00;101207.97;5188104;28;20049;-84
2022/08/02 04:24:43;;;;;;;3.65;2.45;;;17.20;99.90;;;17.50;100.00;101207.06;5180183;28;20567;-85
2022/08/02 04:27:16;;;;;;;4.90;3.00;;;17.20;99.90;;;17.50;100.00;101212.34;5173254;28;20054;-85
2022/08/02 04:32:33;;;;;;;4.68;2.97;;;17.20;99.90;;;17.52;100.00;101218.50;5203147;28;20050;-71
2022/08/02 04:35:08;;;;;;;3.97;3.10;;;17.20;99.90;;;17.54;100.00;101216.81;5208133;28;20489;-70
2022/08/02 04:37:41;;;;;;;4.70;2.78;;;17.30;99.90;;;17.56;100.00;101215.06;5208397;28;20121;-71
2022/08/02 04:40:14;;;;;;;5.45;3.40;;;17.20;99.90;;;17.61;100.00;101225.66;5208223;28;20505;-70
2022/08/02 04:42:46;;;;;;;4.55;3.00;;;17.30;99.90;;;17.64;100.00;101226.59;5190631;28;20054;-71
2022/08/02 04:45:20;;;;;;;4.00;2.92;;;17.30;99.90;;;17.70;100.00;101230.16;5208562;28;20045;-70
2022/08/02 04:47:52;;;;;;;4.55;3.50;;;17.40;99.90;;;17.72;100.00;101225.81;5208440;28;20471;-71
2022/08/02 04:50:25;;;;;;;3.78;2.88;;;17.40;99.90;;;17.76;100.00;101225.00;5190366;28;20045;-70
2022/08/02 04:52:57;;;;;;;5.03;3.10;;;17.40;99.90;;;17.76;100.00;101225.88;5208271;28;20052;-71
2022/08/02 04:55:30;;;;;;;3.80;2.97;;;17.40;99.90;;;17.79;100.00;101225.91;5208407;28;20079;-70
2022/08/02 04:58:02;;;;;;;4.22;2.90;;;17.50;99.90;;;17.81;100.00;101226.84;5207677;28;20059;-73
2022/08/02 05:00:34;;;;;;;4.60;2.80;;;17.50;99.90;;;17.82;100.00;101235.63;5207778;28;20065;-70
2022/08/02 05:03:07;;;;;;;5.13;3.08;;;17.50;99.90;;;17.84;100.00;101233.88;5207780;28;20034;-70
2022/08/02 05:05:41;;;;;;;5.00;3.28;;;17.50;99.90;;;17.93;100.00;101228.75;5207411;28;20049;-71
2022/08/02 05:08:13;;;;;;;4.05;3.10;;;17.60;99.90;;;18.00;100.00;101225.31;5207475;28;20069;-72
2022/08/02 05:10:46;;;;;;;4.47;3.22;;;17.70;99.90;;;18.09;100.00;101232.41;5215409;28;20133;-70
2022/08/02 05:13:18;;;;;;;4.15;3.22;;;17.70;99.90;;;18.21;100.00;101234.31;5207715;28;20136;-70
2022/08/02 05:15:50;;;;;;;5.47;3.60;;;17.80;99.90;;;18.32;100.00;101230.91;5211128;28;20048;-72
2022/08/02 05:18:22;;;;;;;4.70;3.22;;;17.90;99.90;;;18.41;100.00;101238.03;5208393;28;20045;-72
2022/08/02 05:20:56;;;;;;;5.82;3.38;;;18.00;99.90;;;18.58;100.00;101233.81;5207276;28;20052;-70
2022/08/02 05:23:28;;;;;;;6.03;4.40;;;18.20;99.90;;;18.86;100.00;101247.28;5207174;28;20371;-70
2022/08/02 05:26:00;;;;;;;6.07;3.70;;;18.40;99.90;;;19.15;100.00;101244.84;5198429;28;20145;-71
2022/08/02 05:28:33;;;;;;;4.05;3.03;;;18.70;99.90;;;19.39;100.00;101247.63;5196434;28;20053;-53
2022/08/02 05:31:05;;;;;;;3.55;2.80;;;19.00;99.90;;;19.84;100.00;101250.53;5212417;28;20128;-55
2022/08/02 05:33:37;;;;;;;3.90;2.78;;;19.40;99.90;;;20.39;100.00;101245.41;5213940;28;20038;-54
2022/08/02 05:36:10;;;;;;;4.28;3.22;;;19.80;99.90;;;20.93;98.02;101246.34;5206996;28;20040;-57
2022/08/02 05:38:42;;;;;;;5.13;3.10;;;20.30;99.90;;;21.32;95.58;101248.06;5204140;28;20049;-54
2022/08/02 05:41:15;;;;;;;4.57;2.95;;;20.70;99.90;;;21.53;93.96;101250.69;5207100;28;20042;-54
2022/08/02 05:43:47;;;;;;;5.40;3.00;;;21.00;99.90;;;21.69;92.96;101246.22;5207069;28;20403;-54
2022/08/02 05:46:19;;;;;;;3.10;2.60;;;21.20;99.90;;;21.75;92.08;101251.50;5207732;28;20045;-56
2022/08/02 05:48:51;;;;;;;4.72;3.25;;;21.30;99.90;;;21.67;91.42;101245.34;5216176;28;20409;-55
2022/08/02 05:51:32;;;;;;;4.70;2.58;;;21.30;99.70;;;21.51;91.90;101243.63;5206368;28;20041;-55
2022/08/02 05:54:17;;;;;;;4.10;2.95;;;21.20;99.60;;;21.30;92.46;101248.09;5207674;28;20049;-56
2022/08/02 05:56:56;;;;;;;4.00;3.05;;;21.10;99.60;;;21.24;92.90;101252.50;5207438;28;20049;-55
2022/08/02 05:59:58;;;;;;;5.38;2.88;;;21.00;99.70;;;21.03;93.14;101249.00;5207519;28;20102;-56
2022/08/02 06:02:44;;;;;;;5.30;2.92;;;20.90;99.70;;;20.85;94.29;101249.88;5207282;28;20055;-56
2022/08/02 06:05:20;;;;;;;5.45;3.38;;;20.70;99.90;;;20.91;94.96;101248.13;5207282;28;20055;-54
2022/08/02 06:07:56;;;;;;;5.50;3.05;;;20.70;99.90;;;21.05;95.15;101247.19;5207172;28;20041;-56
2022/08/02 06:10:30;;;;;;;3.95;2.50;;;20.70;99.90;;;21.24;94.66;101256.03;5206777;28;20048;-56
2022/08/02 06:13:08;;;;;;;;;;;20.80;99.90;;;21.37;92.67;101255.16;5203988;28;20065;-55
2022/08/02 06:15:41;;;;;;;6.07;3.38;;;21.00;99.60;;;21.40;92.52;101249.84;5163550;28;19933;-56
2022/08/02 06:18:16;;;;;;;4.30;3.20;;;21.10;99.60;;;21.39;92.86;101245.44;5201481;28;20380;-56
2022/08/02 06:20:50;;;;;;;3.63;2.65;;;21.10;99.60;;;21.57;92.89;101241.81;5186768;28;20069;-56
2022/08/02 06:23:24;;;;;;;4.28;3.05;;;21.20;99.70;;;21.71;90.75;101244.41;5190755;28;20063;-70
2022/08/02 06:25:58;;;;;;;3.65;2.97;;;21.30;99.00;;;21.54;91.01;101235.66;5205614;28;20410;-71
2022/08/02 06:28:31;;;;;;;3.55;2.65;;;21.30;99.00;;;21.57;92.08;101243.59;5204658;28;20520;-69
2022/08/02 06:31:03;;;;;;;4.57;2.53;;;21.20;99.30;;;21.67;92.11;101242.69;5204817;28;20053;-69
2022/08/02 06:33:35;;;;;;;4.38;2.90;;;21.30;99.50;;;21.80;92.00;101244.41;5187754;28;20390;-70
2022/08/02 06:36:14;;;;;;;4.25;2.72;;;21.30;99.50;;;21.88;91.53;101226.66;5205496;28;20050;-69
2022/08/02 06:38:58;;;;;;;3.42;2.17;;;21.40;99.40;;;22.02;91.61;101234.56;5205313;28;20046;-70
2022/08/02 06:41:39;;;;;;;3.95;2.38;;;21.50;99.50;;;22.08;90.68;101238.97;5188947;28;20048;-71
2022/08/02 06:44:18;;;;;;;3.03;2.08;;;21.60;99.20;;;22.18;90.40;101235.41;5206623;28;20072;-70
2022/08/02 06:46:50;;;;;;;2.92;2.00;;;21.60;99.10;;;22.30;90.10;101235.34;5206434;28;20049;-69
2022/08/02 06:49:22;;;;;;;3.45;2.28;;;21.70;99.10;;;22.48;89.73;101240.50;5206060;28;20056;-69
2022/08/02 06:51:55;;;;;;;2.65;1.83;;;21.80;99.10;;;22.63;88.95;101246.63;5206374;28;20128;-69
2022/08/02 06:54:28;;;;;;;4.70;2.30;;;21.90;98.90;;;22.75;87.22;101243.84;5206308;28;20137;-68
2022/08/02 06:57:00;;;;;;;3.95;2.15;;;22.00;98.30;;;22.88;86.52;101240.22;5206218;28;20045;-70
2022/08/02 06:59:33;;;;;;;4.43;2.47;;;22.10;98.00;;;23.07;85.55;101232.06;5206089;28;20494;-70
2022/08/02 07:02:05;;;;;;;3.75;2.53;;;22.30;97.80;;;23.17;84.50;101225.78;5206191;28;20049;-71
2022/08/02 07:04:37;;;;;;;4.40;3.13;;;22.40;97.30;;;23.24;84.10;101235.44;5206119;28;20461;-70
2022/08/02 07:07:09;;;;;;;4.25;2.40;;;22.50;97.00;;;23.34;83.74;101245.06;5206188;28;20049;-70
2022/08/02 07:09:43;;;;;;;3.70;2.85;;;22.60;97.20;;;23.38;82.83;101241.50;5205996;28;20401;-69
2022/08/02 07:12:15;;;;;;;4.97;3.35;;;22.70;96.50;;;23.37;82.70;101229.09;5206050;28;20425;-68
2022/08/02 07:14:47;;;;;;;5.18;3.08;;;22.70;96.30;;;23.32;81.98;101238.91;5206272;28;20045;-70
2022/08/02 07:17:19;;;;;;;4.75;2.38;;;22.70;95.90;;;23.30;83.04;101232.72;5205951;28;20052;-70
2022/08/02 07:19:51;;;;;;;3.72;2.30;;;22.70;96.10;;;23.41;82.21;101241.47;5205781;28;20502;-69
2022/08/02 07:22:25;;;;;;;2.83;2.25;;;22.70;95.90;;;23.67;82.00;101257.19;5205944;28;20107;-70
2022/08/02 07:25:00;;;;;;;3.47;2.22;;;22.90;95.90;;;23.89;80.25;101244.47;5205726;28;20057;-69
2022/08/02 07:27:32;;;;;;;4.05;2.30;;;23.10;95.70;;;24.06;79.34;101237.16;5205905;28;20516;-69
2022/08/02 07:30:07;;;;;;;3.08;2.38;;;23.30;95.00;;;24.26;78.63;101238.66;5187913;28;20398;-70
2022/08/02 07:32:39;;;;;;;3.30;1.98;;;23.40;94.60;;;24.51;77.97;101236.50;5205759;28;20052;-70
2022/08/02 07:35:11;;;;;;;1.95;1.73;;;23.60;94.40;;;24.74;76.71;101233.47;5205851;28;20116;-70
2022/08/02 07:37:45;;;;;;;2.88;1.90;;;23.80;93.90;;;24.96;76.10;101234.84;5188048;28;20054;-71
2022/08/02 07:40:18;;;;;;;2.20;1.90;;;24.00;93.60;;;25.19;75.03;101238.94;5204631;28;20045;-69
2022/08/02 07:42:53;;;;;;;3.75;2.20;;;24.20;93.10;;;25.29;74.10;101232.50;5205489;28;20441;-69
2022/08/02 07:45:26;;;;;;;2.25;1.73;;;24.30;92.50;;;25.35;73.53;101229.72;5205838;28;20046;-70
2022/08/02 07:47:58;;;;;;;3.28;2.45;;;24.50;92.10;;;25.58;73.52;101232.84;5205612;28;20453;-71
2022/08/02 07:50:31;;;;;;;2.60;1.73;;;24.60;92.00;;;25.80;72.01;101227.06;5187630;28;20510;-71
2022/08/02 07:53:03;;;;;;;3.72;2.00;;;24.80;91.40;;;25.86;70.94;101232.28;5187741;28;20140;-72
2022/08/02 07:55:36;;;;;;;4.15;2.00;;;24.90;90.60;;;25.99;71.32;101241.78;5205418;28;20048;-72
2022/08/02 07:58:10;;;;;;;2.10;1.80;;;25.10;90.60;;;26.18;70.20;101240.47;5187702;28;20128;-71
2022/08/02 08:00:43;;;;;;;2.80;1.52;;;25.20;90.20;;;26.45;69.63;101230.09;5187765;28;20045;-72
2022/08/02 08:03:15;;;;;;;2.85;1.98;;;25.40;90.00;;;26.77;68.50;101222.13;5205322;28;20041;-73
2022/08/02 08:05:47;;;;;;;3.00;1.80;;;25.60;88.90;;;27.04;67.87;101227.69;5205314;28;20481;-71
2022/08/02 08:08:20;;;;;;;2.80;1.80;;;25.80;88.40;;;27.25;67.16;101224.47;5204149;28;20197;-73
2022/08/02 08:10:53;;;;;;;4.82;1.98;;;25.90;87.10;;;27.39;65.59;101229.47;5205349;28;20037;-72
2022/08/02 08:13:25;;;;;;;3.10;1.83;;;26.10;85.30;;;27.75;64.97;101215.94;5205090;28;20129;-69
2022/08/02 08:15:57;;;;;;;2.92;1.60;;;26.30;84.90;;;28.13;64.38;101228.19;5205184;28;20493;-69
2022/08/02 08:18:30;;;;;;;2.58;1.38;;;26.60;84.10;;;28.45;63.71;101223.63;5205182;28;20046;-68
2022/08/02 08:21:02;;;;;;;1.38;1.27;;;26.80;83.40;;;28.97;62.96;101219.22;5205416;28;20044;-70
2022/08/02 08:23:35;;;;;;;2.30;1.42;;;27.10;83.00;;;29.60;60.71;101207.09;5204964;28;20117;-69
2022/08/02 08:26:08;;;;;;;2.38;1.35;;;27.50;81.00;;;30.22;58.48;101211.88;5205021;28;20146;-70
2022/08/02 08:28:40;;;;;;;2.72;1.40;;;27.80;78.60;;;30.81;56.72;101211.25;5204446;28;20076;-69
2022/08/02 08:31:12;;;;;;;2.05;1.30;;;28.20;76.90;;;31.36;55.76;101211.50;5199841;28;20038;-74
2022/08/02 08:33:44;;;;;;;2.40;1.38;;;28.50;76.00;;;31.82;54.51;101206.72;5204951;28;20068;-69
2022/08/02 08:36:17;;;;;;;4.57;1.65;;;28.80;74.10;;;32.51;52.73;101201.59;5204868;28;20059;-72
2022/08/02 08:38:49;;;;;;;3.13;1.20;;;29.20;72.10;;;33.49;51.00;101204.59;5204869;28;20080;-73
2022/08/02 08:41:22;;;;;;;3.95;1.10;;;29.70;71.20;;;34.62;49.13;101211.72;5204613;28;20042;-72
2022/08/02 08:43:54;;;;;;;;;;;30.50;69.60;;;35.38;47.34;101200.81;5205205;28;20050;-72
2022/08/02 08:46:29;;;;;;;2.38;1.05;;;31.10;66.60;;;36.08;46.20;101211.75;5188906;28;19922;-73
2022/08/02 08:49:06;;;;;;;1.45;1.10;;;31.80;64.40;;;37.06;44.79;101208.75;5204449;28;20045;-72
2022/08/02 08:51:43;;;;;;;1.67;1.00;;;32.70;62.80;;;37.79;43.39;101205.34;5188224;28;20042;-73
2022/08/02 08:54:16;;;;;;;2.00;0.95;;;33.50;60.10;;;38.49;42.38;101205.59;5208624;28;20045;-73
2022/08/02 08:56:52;;;;;;;2.90;1.00;;;34.20;58.70;;;38.97;41.68;101208.25;5207684;28;20045;-72
2022/08/02 08:59:24;;;;;;;4.00;1.50;;;34.80;57.30;;;39.13;41.25;101204.34;5207895;28;20478;-72
2022/08/02 09:01:57;;;;;;;3.45;1.15;;;35.00;56.80;;;38.81;41.15;101199.56;5190624;28;20049;-74
2022/08/02 09:04:30;;;;;;;3.17;1.50;;;34.90;55.10;;;38.67;41.52;101197.88;5208434;28;20443;-72
2022/08/02 09:07:02;;;;;;;0.90;0.90;;;34.90;55.20;;;38.73;41.50;101191.09;5208374;28;20049;-73
2022/08/02 09:09:34;;;;;;;2.97;1.00;;;35.00;54.90;;;39.01;41.46;101198.84;5207983;28;20168;-72
2022/08/02 09:12:15;;;;;;;1.55;1.10;;;35.20;54.80;;;39.52;40.75;101194.84;5207325;28;20033;-73
2022/08/02 09:14:48;;;;;;;2.55;1.10;;;35.50;54.10;;;39.80;39.82;101190.78;5196620;28;20053;-74
2022/08/02 09:17:20;;;;;;;1.27;1.10;;;35.70;53.40;;;39.83;39.84;101187.78;5208293;28;20044;-74
2022/08/02 09:20:07;;;;;;;1.63;1.20;;;35.90;53.20;;;39.51;40.66;101188.50;5202508;28;20385;-72
2022/08/02 09:22:39;;;;;;;1.55;1.15;;;35.80;53.30;;;38.93;40.70;101171.34;5202922;28;20095;-73
2022/08/02 09:25:15;;;;;;;1.88;1.10;;;35.50;53.00;;;38.34;41.95;101165.91;5211673;28;20120;-74
2022/08/02 09:27:50;;;;;;;1.42;0.93;;;35.20;53.70;;;37.50;42.62;101168.53;5191970;28;20041;-73
2022/08/02 09:30:22;;;;;;;3.25;1.38;;;34.80;54.30;;;36.44;42.62;101164.16;5207381;28;20041;-73
2022/08/02 09:32:54;;;;;;;2.00;1.27;;;34.20;53.40;;;35.37;44.44;101160.25;5207285;28;20056;-71
2022/08/02 09:35:35;;;;;;;1.23;1.10;;;33.60;54.30;;;34.77;45.77;101170.22;5206815;28;20045;-72
2022/08/02 09:38:12;;;;;;;1.13;1.02;;;33.20;55.20;;;34.36;46.56;101155.53;5207322;28;20056;-72
2022/08/02 09:40:44;;;;;;;1.20;1.10;;;32.90;55.80;;;33.82;47.60;101171.25;5207824;28;20494;-72
2022/08/02 09:43:19;;;;;;;1.92;1.10;;;32.50;56.40;;;33.36;48.51;101154.88;5207614;28;20076;-72
2022/08/02 09:45:51;;;;;;;1.58;1.10;;;32.10;57.20;;;33.04;49.32;101156.59;5205373;28;20045;-73
2022/08/02 09:48:23;;;;;;;2.33;1.25;;;31.70;57.90;;;32.86;49.35;101158.41;5199628;28;20065;-72
2022/08/02 09:50:56;;;;;;;2.13;1.23;;;31.50;58.00;;;32.80;49.78;101161.41;5189480;28;20046;-72
2022/08/02 09:53:30;;;;;;;2.00;1.30;;;31.50;58.40;;;32.76;50.09;101149.94;5206881;28;20502;-73
2022/08/02 09:56:04;;;;;;;1.20;1.02;;;31.40;58.60;;;32.80;49.99;101148.81;5207495;28;20045;-72
2022/08/02 09:58:40;;;;;;;1.40;1.30;;;31.40;58.60;;;32.83;50.03;101151.34;5207280;28;20053;-72
2022/08/02 10:01:12;;;;;;;1.65;1.20;;;31.40;58.70;;;32.73;49.05;101151.91;5206942;28;20034;-72
2022/08/02 10:03:56;;;;;;;1.67;1.40;;;31.40;57.90;;;32.51;49.35;101142.22;5205998;28;20049;-73
2022/08/02 10:06:29;;;;;;;1.85;1.20;;;31.30;58.00;;;32.58;49.80;101140.09;5186726;28;20042;-72
2022/08/02 10:09:02;;;;;;;1.67;1.40;;;31.30;58.40;;;32.55;50.07;101133.03;5168624;28;20048;-72
2022/08/02 10:11:35;;;;;;;1.30;1.20;;;31.30;58.50;;;32.56;50.02;101134.78;5186503;28;20462;-72
2022/08/02 10:14:10;;;;;;;1.35;1.08;;;31.30;58.50;;;32.37;48.57;101136.66;5186371;28;20048;-71
2022/08/02 10:16:44;;;;;;;3.03;1.15;;;31.20;57.50;;;32.20;47.83;101134.78;5186328;28;20046;-73
2022/08/02 10:19:17;;;;;;;0.80;0.80;;;31.00;56.70;;;31.95;47.60;101127.06;5186423;28;20089;-72
2022/08/02 10:21:56;;;;;;;0.95;0.95;;;30.80;56.30;;;31.39;48.51;101127.03;5186011;28;20042;-72
2022/08/02 10:24:31;;;;;;;1.90;1.10;;;30.50;56.70;;;31.06;49.46;101128.47;5204273;28;20121;-72
2022/08/02 10:27:04;;;;;;;2.00;1.23;;;30.20;57.60;;;30.86;50.52;101125.81;5206580;28;20042;-72
2022/08/02 10:29:39;;;;;;;2.00;1.20;;;30.00;58.40;;;30.79;51.16;101127.00;5188960;28;20072;-73
2022/08/02 10:32:16;;;;;;;1.67;1.35;;;29.80;59.10;;;30.97;51.67;101126.22;5222529;23;20399;-72
2022/08/02 10:34:55;;;;;;;1.35;1.10;;;29.90;59.70;;;31.30;51.13;101118.44;5140353;28;20050;-70
2022/08/02 10:37:30;;;;;;;1.25;1.13;;;30.00;59.50;;;31.64;50.90;101110.59;5145530;28;20042;-70
2022/08/02 10:40:04;;;;;;;0.90;0.90;;;30.30;59.30;;;31.83;50.44;101106.09;5145405;28;20055;-71
2022/08/02 10:42:47;;;;;;;1.20;1.10;;;30.50;59.00;;;31.79;50.28;101112.56;5145633;28;20057;-71